createdAt,value
2022-12-27T00:01:18.317Z,8.60
2022-12-27T00:03:48.356Z,9.60
2022-12-27T00:06:21.297Z,8.20
2022-12-27T00:08:52.038Z,8.30
2022-12-27T00:11:24.512Z,8.00
2022-12-27T00:13:54.724Z,9.13
2022-12-27T00:16:26.397Z,10.90
2022-12-27T00:18:57.401Z,10.37
2022-12-27T00:21:27.974Z,8.60
2022-12-27T00:23:59.454Z,9.50
2022-12-27T00:26:33.007Z,9.03
2022-12-27T00:29:03.907Z,8.27
2022-12-27T00:31:36.542Z,7.10
2022-12-27T00:34:08.194Z,9.20
2022-12-27T00:36:38.032Z,7.10
2022-12-27T00:39:08.917Z,7.50
2022-12-27T00:41:39.734Z,7.30
2022-12-27T00:44:10.066Z,6.80
2022-12-27T00:46:42.075Z,6.83
2022-12-27T00:49:12.179Z,6.60
2022-12-27T00:51:42.605Z,6.57
2022-12-27T00:54:12.376Z,7.90
2022-12-27T00:56:42.840Z,6.80
2022-12-27T00:59:13.922Z,6.53
2022-12-27T01:01:46.037Z,6.80
2022-12-27T01:04:17.099Z,6.60
2022-12-27T01:06:50.975Z,6.23
2022-12-27T01:09:20.768Z,6.40
2022-12-27T01:11:52.069Z,6.93
2022-12-27T01:14:22.254Z,6.60
2022-12-27T01:16:54.184Z,6.67
2022-12-27T01:19:25.330Z,7.80
2022-12-27T01:21:55.389Z,5.70
2022-12-27T01:24:25.410Z,6.83
2022-12-27T01:26:56.101Z,6.40
2022-12-27T01:29:25.959Z,5.73
2022-12-27T01:31:58.080Z,6.53
2022-12-27T01:34:28.469Z,5.40
2022-12-27T01:36:58.607Z,5.50
2022-12-27T01:39:28.755Z,6.13
2022-12-27T01:42:16.194Z,5.60
2022-12-27T01:44:58.353Z,5.70
2022-12-27T01:47:44.914Z,4.73
2022-12-27T01:50:22.863Z,5.20
2022-12-27T01:52:58.320Z,4.60
2022-12-27T01:55:35.398Z,4.80
2022-12-27T01:58:11.233Z,5.57
2022-12-27T02:00:44.121Z,5.33
2022-12-27T02:03:18.116Z,5.50
2022-12-27T02:05:48.887Z,4.97
2022-12-27T02:08:29.168Z,4.70
2022-12-27T02:11:00.889Z,5.43
2022-12-27T02:13:34.177Z,3.47
2022-12-27T02:16:11.095Z,4.80
2022-12-27T02:18:42.840Z,4.60
2022-12-27T02:21:49.071Z,4.10
2022-12-27T02:24:35.785Z,4.90
2022-12-27T02:27:09.871Z,4.03
2022-12-27T02:32:49.029Z,4.30
2022-12-27T02:35:25.622Z,4.03
2022-12-27T02:37:58.797Z,4.63
2022-12-27T02:40:47.305Z,4.27
2022-12-27T02:43:34.602Z,4.80
2022-12-27T02:46:27.766Z,4.27
2022-12-27T02:49:17.172Z,4.53
2022-12-27T02:52:17.210Z,4.63
2022-12-27T02:55:05.339Z,3.80
2022-12-27T02:57:41.459Z,3.83
2022-12-27T03:00:31.770Z,4.53
2022-12-27T03:03:31.692Z,4.53
2022-12-27T03:06:43.983Z,3.50
2022-12-27T03:09:44.780Z,3.60
2022-12-27T03:12:38.748Z,4.03
2022-12-27T03:15:33.500Z,4.30
2022-12-27T03:18:08.754Z,5.33
2022-12-27T03:20:56.894Z,4.67
2022-12-27T03:23:46.965Z,3.77
2022-12-27T03:26:18.356Z,3.43
2022-12-27T03:29:06.870Z,3.10
2022-12-27T03:31:58.088Z,3.13
2022-12-27T03:34:36.120Z,4.00
2022-12-27T03:37:26.745Z,3.63
2022-12-27T03:40:06.725Z,4.00
2022-12-27T03:43:03.673Z,5.17
2022-12-27T03:45:54.313Z,4.27
2022-12-27T03:48:26.889Z,2.90
2022-12-27T03:51:05.654Z,3.70
2022-12-27T03:53:37.999Z,3.87
2022-12-27T03:56:11.399Z,3.73
2022-12-27T03:58:42.563Z,4.13
2022-12-27T04:01:12.901Z,2.73
2022-12-27T04:03:43.574Z,3.50
2022-12-27T04:06:14.100Z,4.47
2022-12-27T04:09:01.364Z,3.83
2022-12-27T04:11:50.077Z,3.30
2022-12-27T04:14:38.102Z,3.30
2022-12-27T04:17:25.247Z,3.73
2022-12-27T04:20:12.637Z,3.40
2022-12-27T04:23:00.165Z,3.97
2022-12-27T04:25:47.489Z,3.17
2022-12-27T04:28:36.631Z,3.00
2022-12-27T04:31:24.277Z,3.47
2022-12-27T04:34:12.329Z,2.90
2022-12-27T04:36:42.639Z,3.20
2022-12-27T04:39:13.083Z,3.00
2022-12-27T04:42:00.505Z,3.87
2022-12-27T04:44:49.460Z,4.57
2022-12-27T04:47:38.790Z,4.03
2022-12-27T04:50:32.557Z,3.70
2022-12-27T04:53:19.934Z,3.50
2022-12-27T04:55:50.167Z,4.00
2022-12-27T04:58:20.658Z,3.47
2022-12-27T05:01:14.156Z,3.23
2022-12-27T05:03:45.961Z,3.40
2022-12-27T05:06:16.768Z,3.47
2022-12-27T05:09:04.389Z,3.30
2022-12-27T05:11:51.699Z,5.13
2022-12-27T05:14:21.973Z,4.30
2022-12-27T05:16:53.702Z,3.30
2022-12-27T05:19:24.713Z,3.63
2022-12-27T05:22:08.286Z,3.20
2022-12-27T05:24:55.943Z,3.90
2022-12-27T05:27:25.732Z,3.40
2022-12-27T05:29:56.352Z,3.90
2022-12-27T05:32:28.290Z,2.97
2022-12-27T05:34:58.152Z,3.30
2022-12-27T05:37:27.542Z,4.73
2022-12-27T05:39:57.465Z,3.57
2022-12-27T05:42:27.529Z,3.60
2022-12-27T05:44:57.137Z,3.43
2022-12-27T05:47:29.070Z,3.57
2022-12-27T05:49:59.079Z,3.27
2022-12-27T05:52:28.648Z,3.80
2022-12-27T05:54:58.189Z,4.50
2022-12-27T05:57:28.212Z,3.87
2022-12-27T05:59:59.457Z,3.97
2022-12-27T06:02:30.626Z,3.70
2022-12-27T06:05:00.884Z,5.40
2022-12-27T06:07:30.397Z,5.17
2022-12-27T06:10:00.640Z,5.40
2022-12-27T06:12:30.657Z,4.40
2022-12-27T06:15:00.734Z,4.07
2022-12-27T06:17:32.758Z,5.80
2022-12-27T06:20:03.116Z,5.77
2022-12-27T06:22:33.185Z,6.53
2022-12-27T06:25:03.711Z,6.13
2022-12-27T06:27:33.708Z,4.23
2022-12-27T06:30:04.508Z,2.90
2022-12-27T06:32:36.540Z,3.50
2022-12-27T06:35:06.833Z,3.60
2022-12-27T06:37:37.550Z,4.87
2022-12-27T06:40:08.690Z,4.20
2022-12-27T06:42:38.841Z,4.60
2022-12-27T06:45:10.806Z,4.00
2022-12-27T06:47:42.178Z,4.87
2022-12-27T06:50:12.748Z,4.73
2022-12-27T06:52:42.869Z,4.10
2022-12-27T06:55:13.234Z,5.73
2022-12-27T06:57:43.348Z,6.00
2022-12-27T07:00:14.885Z,7.90
2022-12-27T07:02:46.461Z,8.90
2022-12-27T07:05:16.689Z,7.87
2022-12-27T07:07:46.802Z,8.40
2022-12-27T07:10:17.444Z,10.53
2022-12-27T07:12:47.115Z,7.03
2022-12-27T07:15:16.688Z,7.23
2022-12-27T07:17:47.631Z,7.67
2022-12-27T07:20:18.533Z,6.47
2022-12-27T07:22:48.665Z,5.60
2022-12-27T07:25:18.327Z,6.17
2022-12-27T07:27:47.958Z,6.00
2022-12-27T07:30:18.163Z,5.20
2022-12-27T07:32:49.104Z,7.10
2022-12-27T07:35:18.948Z,5.97
2022-12-27T07:37:48.609Z,5.30
2022-12-27T07:40:18.188Z,5.60
2022-12-27T07:42:48.659Z,6.23
2022-12-27T07:45:19.144Z,9.13
2022-12-27T07:47:50.586Z,8.07
2022-12-27T07:50:20.058Z,9.10
2022-12-27T07:52:50.213Z,9.07
2022-12-27T07:55:20.398Z,8.93
2022-12-27T07:57:50.353Z,7.83
2022-12-27T08:00:21.491Z,7.17
2022-12-27T08:02:53.707Z,8.37
2022-12-27T08:05:27.550Z,7.53
2022-12-27T08:08:02.280Z,6.20
2022-12-27T08:10:31.675Z,7.00
2022-12-27T08:13:01.809Z,7.10
2022-12-27T08:15:32.079Z,6.03
2022-12-27T08:18:03.984Z,4.60
2022-12-27T08:20:33.715Z,2.90
2022-12-27T08:23:04.418Z,2.73
2022-12-27T08:25:33.969Z,5.10
2022-12-27T08:28:08.520Z,8.13
2022-12-27T08:30:39.981Z,9.47
2022-12-27T08:33:11.711Z,9.87
2022-12-27T08:35:52.832Z,9.50
2022-12-27T08:38:23.973Z,8.40
2022-12-27T08:40:53.867Z,9.03
2022-12-27T08:43:23.662Z,8.83
2022-12-27T08:45:53.708Z,8.67
2022-12-27T08:48:25.448Z,9.43
2022-12-27T08:50:55.553Z,8.60
2022-12-27T08:53:25.820Z,8.93
2022-12-27T08:55:58.623Z,8.67
2022-12-27T08:58:28.649Z,7.83
2022-12-27T09:00:58.898Z,7.97
2022-12-27T09:03:30.533Z,6.77
2022-12-27T09:06:10.244Z,5.30
2022-12-27T09:08:40.596Z,5.20
2022-12-27T09:11:13.031Z,4.00
2022-12-27T09:13:44.137Z,3.60
2022-12-27T09:16:15.529Z,3.40
2022-12-27T09:18:50.296Z,1.90
2022-12-27T09:21:20.714Z,1.70
2022-12-27T09:23:51.653Z,1.37
2022-12-27T09:26:23.374Z,0.73
2022-12-27T09:28:53.297Z,1.00
2022-12-27T09:31:23.264Z,1.10
2022-12-27T09:33:55.573Z,0.70
2022-12-27T09:36:27.300Z,0.90
2022-12-27T09:38:58.027Z,1.07
2022-12-27T09:44:35.889Z,0.60
2022-12-27T09:47:10.667Z,0.70
2022-12-27T09:49:45.818Z,0.60
2022-12-27T09:52:18.034Z,0.80
2022-12-27T09:55:00.905Z,0.60
2022-12-27T09:57:38.767Z,1.10
2022-12-27T10:00:17.799Z,0.97
2022-12-27T10:02:48.778Z,0.97
2022-12-27T10:05:23.665Z,0.53
2022-12-27T10:08:05.322Z,0.83
2022-12-27T10:10:43.706Z,1.13
2022-12-27T10:13:31.568Z,1.10
2022-12-27T10:16:12.184Z,2.03
2022-12-27T10:18:51.695Z,1.73
2022-12-27T10:21:25.487Z,1.00
2022-12-27T10:23:57.818Z,1.70
2022-12-27T10:26:27.939Z,1.40
2022-12-27T10:29:01.196Z,0.70
2022-12-27T10:31:32.765Z,1.10
2022-12-27T10:34:08.964Z,1.20
2022-12-27T10:36:42.744Z,1.20
2022-12-27T10:39:18.922Z,1.07
2022-12-27T10:41:56.162Z,1.27
2022-12-27T10:44:26.955Z,0.73
2022-12-27T10:46:58.503Z,0.77
2022-12-27T10:49:30.493Z,0.70
2022-12-27T10:52:09.846Z,0.87
2022-12-27T10:54:52.813Z,0.80
2022-12-27T10:57:28.907Z,0.70
2022-12-27T11:00:19.186Z,0.70
2022-12-27T11:02:53.571Z,0.80
2022-12-27T11:05:25.375Z,0.63
2022-12-27T11:07:57.634Z,0.80
2022-12-27T11:10:28.977Z,0.43
2022-12-27T11:13:02.246Z,0.80
2022-12-27T11:15:34.144Z,0.60
2022-12-27T11:18:11.126Z,0.60
2022-12-27T11:20:42.364Z,1.27
2022-12-27T11:23:17.040Z,0.53
2022-12-27T11:25:55.131Z,0.97
2022-12-27T11:28:31.068Z,1.40
2022-12-27T11:31:04.574Z,1.60
2022-12-27T11:33:39.766Z,1.20
2022-12-27T11:36:11.649Z,1.80
2022-12-27T11:38:47.646Z,1.57
2022-12-27T11:41:26.075Z,0.93
2022-12-27T11:44:02.769Z,1.33
2022-12-27T11:46:39.703Z,0.97
2022-12-27T11:49:15.870Z,1.20
2022-12-27T11:52:09.384Z,1.00
2022-12-27T11:55:05.073Z,1.23
2022-12-27T11:57:48.624Z,1.37
2022-12-27T12:00:22.137Z,1.40
2022-12-27T12:03:19.100Z,1.30
2022-12-27T12:05:58.130Z,0.87
2022-12-27T12:08:46.703Z,0.90
2022-12-27T12:11:26.971Z,1.07
2022-12-27T12:14:17.070Z,2.10
2022-12-27T12:16:59.113Z,2.03
2022-12-27T12:19:57.829Z,1.83
2022-12-27T12:22:38.542Z,2.30
2022-12-27T12:25:46.484Z,2.80
2022-12-27T12:28:59.828Z,2.43
2022-12-27T12:31:50.361Z,2.73
2022-12-27T12:34:40.449Z,2.50
2022-12-27T12:37:21.434Z,2.63
2022-12-27T12:40:13.080Z,3.73
2022-12-27T12:42:48.581Z,2.93
2022-12-27T12:45:33.956Z,2.60
2022-12-27T12:48:26.008Z,3.40
2022-12-27T12:51:13.131Z,2.83
2022-12-27T12:53:57.397Z,2.80
2022-12-27T12:56:45.737Z,2.73
2022-12-27T12:59:30.643Z,2.57
2022-12-27T13:02:13.870Z,1.50
2022-12-27T13:05:03.372Z,1.67
2022-12-27T13:07:43.820Z,2.60
2022-12-27T13:10:56.396Z,2.53
2022-12-27T13:13:35.354Z,2.40
2022-12-27T13:16:24.368Z,1.97
2022-12-27T13:19:06.270Z,1.60
2022-12-27T13:21:53.012Z,1.80
2022-12-27T13:24:30.613Z,1.47
2022-12-27T13:27:05.547Z,1.60
2022-12-27T13:29:47.134Z,2.00
2022-12-27T13:32:25.438Z,1.73
2022-12-27T13:35:10.581Z,2.33
2022-12-27T13:37:48.693Z,2.07
2022-12-27T13:40:31.911Z,2.53
2022-12-27T13:43:15.621Z,2.00
2022-12-27T13:45:55.627Z,3.07
2022-12-27T13:48:44.750Z,1.73
2022-12-27T13:51:31.954Z,2.70
2022-12-27T13:54:34.587Z,2.53
2022-12-27T13:57:12.763Z,2.10
2022-12-27T14:00:02.591Z,2.10
2022-12-27T14:03:15.983Z,1.60
2022-12-27T14:06:07.768Z,1.70
2022-12-27T14:09:06.902Z,1.50
2022-12-27T14:11:45.185Z,1.93
2022-12-27T14:14:18.711Z,2.23
2022-12-27T14:16:59.536Z,3.60
2022-12-27T14:19:49.014Z,3.40
2022-12-27T14:22:43.860Z,3.30
2022-12-27T14:25:46.529Z,3.73
2022-12-27T14:28:37.925Z,4.40
2022-12-27T14:31:45.289Z,3.67
2022-12-27T14:34:48.269Z,2.77
2022-12-27T14:37:47.394Z,4.40
2022-12-27T14:40:59.785Z,3.23
2022-12-27T14:44:11.594Z,3.60
2022-12-27T14:50:30.186Z,3.80
2022-12-27T14:53:43.184Z,3.30
2022-12-27T14:56:21.625Z,3.40
2022-12-27T14:58:58.223Z,3.60
2022-12-27T15:01:41.690Z,4.30
2022-12-27T15:04:41.390Z,4.73
2022-12-27T15:07:39.559Z,4.50
2022-12-27T15:10:18.014Z,4.70
2022-12-27T15:12:53.830Z,4.80
2022-12-27T15:15:46.569Z,4.43
2022-12-27T15:18:29.133Z,4.97
2022-12-27T15:21:17.988Z,3.87
2022-12-27T15:23:53.667Z,3.93
2022-12-27T15:26:42.394Z,4.53
2022-12-27T15:29:28.545Z,4.00
2022-12-27T15:32:04.074Z,4.63
2022-12-27T15:34:45.860Z,5.07
2022-12-27T15:37:53.625Z,4.33
2022-12-27T15:40:31.163Z,3.90
2022-12-27T15:43:05.416Z,5.07
2022-12-27T15:45:48.577Z,4.80
2022-12-27T15:48:56.628Z,6.00
2022-12-27T15:51:33.968Z,5.40
2022-12-27T15:54:27.410Z,5.70
2022-12-27T15:57:24.833Z,5.70
2022-12-27T15:59:56.224Z,7.07
2022-12-27T16:02:37.529Z,7.53
2022-12-27T16:05:14.143Z,7.10
2022-12-27T16:07:47.231Z,5.93
2022-12-27T16:10:51.035Z,7.73
2022-12-27T16:13:37.621Z,7.10
2022-12-27T16:16:50.018Z,7.30
2022-12-27T16:19:28.629Z,6.70
2022-12-27T16:21:59.267Z,6.63
2022-12-27T16:24:30.573Z,5.93
2022-12-27T16:27:03.060Z,6.40
2022-12-27T16:29:36.104Z,6.50
2022-12-27T16:32:20.870Z,5.77
2022-12-27T16:34:56.545Z,5.77
2022-12-27T16:37:30.135Z,6.07
2022-12-27T16:40:19.543Z,5.10
2022-12-27T16:43:31.821Z,5.13
2022-12-27T16:46:38.953Z,5.40
2022-12-27T16:49:36.108Z,5.23
2022-12-27T16:52:22.566Z,5.90
2022-12-27T16:55:00.459Z,5.13
2022-12-27T16:57:42.611Z,4.10
2022-12-27T17:00:41.206Z,5.20
2022-12-27T17:03:33.069Z,4.70
2022-12-27T17:06:31.271Z,4.80
2022-12-27T17:09:33.827Z,5.57
2022-12-27T17:12:27.168Z,5.33
2022-12-27T17:15:02.830Z,4.80
2022-12-27T17:17:33.661Z,4.37
2022-12-27T17:20:07.469Z,4.50
2022-12-27T17:22:41.799Z,4.70
2022-12-27T17:25:18.699Z,5.20
2022-12-27T17:27:58.757Z,4.50
2022-12-27T17:30:32.643Z,5.03
2022-12-27T17:33:23.559Z,4.90
2022-12-27T17:36:16.838Z,5.23
2022-12-27T17:38:58.908Z,6.10
2022-12-27T17:41:58.339Z,7.80
2022-12-27T17:44:41.134Z,7.10
2022-12-27T17:47:21.814Z,6.50
2022-12-27T17:49:54.400Z,7.63
2022-12-27T17:52:45.724Z,8.43
2022-12-27T17:55:38.497Z,9.47
2022-12-27T17:58:11.515Z,10.03
2022-12-27T18:00:47.310Z,9.43
2022-12-27T18:03:17.340Z,10.70
2022-12-27T18:05:49.668Z,10.07
2022-12-27T18:08:28.035Z,9.07
2022-12-27T18:10:58.978Z,10.50
2022-12-27T18:13:31.940Z,11.00
2022-12-27T18:16:06.919Z,10.77
2022-12-27T18:18:37.540Z,10.40
2022-12-27T18:21:08.844Z,10.50
2022-12-27T18:23:43.323Z,9.83
2022-12-27T18:26:15.817Z,9.80
2022-12-27T18:28:45.888Z,11.60
2022-12-27T18:31:21.912Z,10.50
2022-12-27T18:33:53.366Z,11.00
2022-12-27T18:36:27.471Z,11.37
2022-12-27T18:39:00.921Z,10.47
2022-12-27T18:41:37.445Z,9.63
2022-12-27T18:44:14.148Z,11.70
2022-12-27T18:46:46.830Z,11.43
2022-12-27T18:49:27.004Z,13.13
2022-12-27T18:51:57.595Z,10.93
2022-12-27T18:54:36.871Z,12.87
2022-12-27T18:57:08.813Z,13.00
2022-12-27T18:59:38.973Z,11.97
2022-12-27T19:05:25.586Z,12.23
2022-12-27T19:07:59.279Z,12.20
2022-12-27T19:10:31.195Z,12.53
2022-12-27T19:13:01.794Z,12.70
2022-12-27T19:15:39.974Z,10.83
2022-12-27T19:18:22.131Z,11.30
2022-12-27T19:20:57.908Z,12.40
2022-12-27T19:23:33.542Z,14.50
2022-12-27T19:26:06.860Z,14.93
2022-12-27T19:28:37.796Z,19.07
2022-12-27T19:31:18.655Z,22.83
2022-12-27T19:33:51.837Z,21.90
2022-12-27T19:36:28.973Z,23.43
2022-12-27T19:38:59.071Z,20.97
2022-12-27T19:41:29.139Z,20.50
2022-12-27T19:43:58.763Z,19.30
2022-12-27T19:46:31.158Z,21.13
2022-12-27T19:51:53.701Z,17.00
2022-12-27T19:54:27.407Z,16.60
2022-12-27T19:56:58.972Z,21.27
2022-12-27T19:59:29.231Z,21.07
2022-12-27T20:01:59.756Z,19.80
2022-12-27T20:04:30.910Z,18.80
2022-12-27T20:07:03.462Z,15.33
2022-12-27T20:09:33.183Z,14.87
2022-12-27T20:12:03.673Z,17.40
2022-12-27T20:14:33.534Z,16.90
2022-12-27T20:17:03.851Z,18.07
2022-12-27T20:19:34.179Z,17.37
2022-12-27T20:22:06.352Z,15.27
2022-12-27T20:24:37.989Z,15.63
2022-12-27T20:27:08.167Z,13.50
2022-12-27T20:29:38.511Z,14.17
2022-12-27T20:32:08.610Z,11.50
2022-12-27T20:34:38.788Z,12.60
2022-12-27T20:37:11.151Z,12.33
2022-12-27T20:39:40.794Z,11.57
2022-12-27T20:42:10.871Z,12.23
2022-12-27T20:44:41.315Z,12.20
2022-12-27T20:47:11.164Z,12.60
2022-12-27T20:49:42.956Z,10.73
2022-12-27T20:52:15.140Z,11.60
2022-12-27T20:54:45.714Z,12.77
2022-12-27T20:57:15.492Z,14.33
2022-12-27T20:59:45.503Z,15.73
2022-12-27T21:02:15.794Z,14.10
2022-12-27T21:04:45.687Z,14.43
2022-12-27T21:07:17.552Z,14.23
2022-12-27T21:09:47.364Z,13.63
2022-12-27T21:12:17.209Z,13.00
2022-12-27T21:14:47.924Z,11.10
2022-12-27T21:17:17.604Z,11.43
2022-12-27T21:19:47.805Z,10.57
2022-12-27T21:22:19.356Z,11.50
2022-12-27T21:24:49.604Z,10.57
2022-12-27T21:27:19.941Z,11.17
2022-12-27T21:29:50.582Z,11.63
2022-12-27T21:32:20.953Z,11.07
2022-12-27T21:34:50.525Z,11.67
2022-12-27T21:37:23.709Z,11.70
2022-12-27T21:39:53.428Z,9.43
2022-12-27T21:42:23.995Z,10.10
2022-12-27T21:44:53.835Z,8.63
2022-12-27T21:47:24.289Z,8.90
2022-12-27T21:49:54.899Z,9.90
2022-12-27T21:52:26.714Z,7.60
2022-12-27T21:54:56.603Z,8.43
2022-12-27T21:57:26.606Z,8.03
2022-12-27T21:59:56.966Z,8.50
2022-12-27T22:02:27.403Z,8.90
2022-12-27T22:04:57.783Z,7.20
2022-12-27T22:07:29.413Z,6.73
2022-12-27T22:09:59.365Z,7.70
2022-12-27T22:12:29.369Z,6.70
2022-12-27T22:14:59.419Z,8.00
2022-12-27T22:17:29.161Z,7.17
2022-12-27T22:19:59.441Z,8.03
2022-12-27T22:22:30.505Z,7.30
2022-12-27T22:25:00.459Z,7.97
2022-12-27T22:27:30.139Z,7.10
2022-12-27T22:30:00.396Z,7.30
2022-12-27T22:32:30.335Z,7.53
2022-12-27T22:35:00.622Z,5.70
2022-12-27T22:37:32.144Z,6.80
2022-12-27T22:40:02.031Z,6.67
2022-12-27T22:42:32.138Z,6.57
2022-12-27T22:45:02.633Z,6.23
2022-12-27T22:47:32.799Z,5.27
2022-12-27T22:50:03.070Z,7.10
2022-12-27T22:52:34.679Z,6.03
2022-12-27T22:55:07.173Z,5.20
2022-12-27T22:57:38.409Z,6.77
2022-12-27T23:00:11.094Z,6.03
2022-12-27T23:02:41.271Z,7.60
2022-12-27T23:05:12.009Z,6.30
2022-12-27T23:08:04.588Z,7.50
2022-12-27T23:10:32.904Z,6.60
2022-12-27T23:13:02.984Z,8.00
2022-12-27T23:15:32.665Z,6.67
2022-12-27T23:18:02.009Z,6.73
2022-12-27T23:20:31.647Z,6.50
2022-12-27T23:23:02.990Z,6.87
2022-12-27T23:25:32.579Z,7.17
2022-12-27T23:28:02.046Z,5.37
2022-12-27T23:30:31.526Z,5.50
2022-12-27T23:33:01.828Z,5.10
2022-12-27T23:35:31.340Z,5.40
2022-12-27T23:38:02.987Z,5.30
2022-12-27T23:40:33.274Z,5.00
2022-12-27T23:43:33.187Z,4.80
2022-12-27T23:45:54.019Z,4.57
2022-12-27T23:48:24.086Z,4.27
2022-12-27T23:50:53.789Z,5.00
2022-12-27T23:53:25.329Z,5.07
2022-12-27T23:55:58.571Z,4.60
2022-12-27T23:58:28.183Z,4.20
